Check out our new PWSWeather beta!
PWSweather.com
Personal Weather Stations
Station Observations
METEOAVIO1
Www.smaniotto.eu, AvioIT

Www.smaniotto.euAvioIT

Lat: 45.737027, Lon: 10.94092539999997

Elevation: 150

Station Type: Oregon Scientific WMR300

http://www.smaniotto.eu/meteo/

Latest ConditionsUpdated 3:00:02 PM GMT+01:01 Wednesday, Feb 26, 2020
Currently Today's Max Today's Min Today's Average
Temperature 48.4°F9.1°C 58.3°F14.6°C 44.4°F6.9°C 49.7°F9.8°C
Dew Point 33.4°F0.8°C 46.4°F8.0°C 33.4°F0.8°C 42.2°F5.7°C
Winds 2.3 mph N3.7 kmh N 4.6 mph -7.4 kmh - - 1.1 mph 1.8 kmh
Wind Gusts 3.5 mph5.6 kmh 9.2 mph14.8 kmh - -
Humidity 56% 94% 51% 77%
Pressure 29.47 in998.0 mb 29.57 in1001.4 mb 29.38 in994.9 mb -
Hour Temp Dew Point Humidity Winds Wind Gusts Pressure Precip Precip Rate Daily Precip Total
03:00 PM 48.4°F9.1°C 33.4°F0.8°C 56% 2.3 mph N3.7 kmh N 3.5 mph5.6 kmh 29.47 in998.0 mb - 0.00 in0.0 mm 0.00 in0.0 mm
02:50 PM 48.9°F9.4°C 34.3°F1.3°C 57% 3.5 mph SE5.6 kmh SE 1.2 mph1.9 kmh 29.47 in998.0 mb - 0.00 in0.0 mm 0.00 in0.0 mm
02:40 PM 49.7°F9.8°C 34.6°F1.4°C 56% 2.3 mph E3.7 kmh E 6.9 mph11.1 kmh 29.44 in997.0 mb - 0.00 in0.0 mm 0.00 in0.0 mm
02:30 PM 51.1°F10.6°C 35.0°F1.7°C 54% 2.3 mph N3.7 kmh N 5.8 mph9.3 kmh 29.44 in997.0 mb - 0.00 in0.0 mm 0.00 in0.0 mm
02:20 PM 51.8°F11.0°C 36.6°F2.6°C 56% 2.3 mph NE3.7 kmh NE 4.6 mph7.4 kmh 29.41 in995.9 mb - 0.00 in0.0 mm 0.00 in0.0 mm
02:10 PM 52.2°F11.2°C 36.9°F2.7°C 56% 2.3 mph E3.7 kmh E 2.3 mph3.7 kmh 29.39 in995.3 mb - 0.00 in0.0 mm 0.00 in0.0 mm
02:00 PM 52.2°F11.2°C 36.0°F2.2°C 54% 1.2 mph SW1.9 kmh SW 4.6 mph7.4 kmh 29.39 in995.3 mb - 0.00 in0.0 mm 0.00 in0.0 mm
01:50 PM 52.2°F11.2°C 36.5°F2.5°C 55% 1.2 mph WNW1.9 kmh WNW 2.3 mph3.7 kmh 29.39 in995.3 mb - 0.00 in0.0 mm 0.00 in0.0 mm
01:40 PM 52.2°F11.2°C 36.0°F2.2°C 54% 2.3 mph S3.7 kmh S 3.5 mph5.6 kmh 29.39 in995.3 mb - 0.00 in0.0 mm 0.00 in0.0 mm
01:30 PM 52.2°F11.2°C 35.5°F1.9°C 53% 2.3 mph SSE3.7 kmh SSE 2.3 mph3.7 kmh 29.39 in995.3 mb - 0.00 in0.0 mm 0.00 in0.0 mm
01:20 PM 52.3°F11.3°C 35.7°F2.1°C 53% 2.3 mph SW3.7 kmh SW 2.3 mph3.7 kmh 29.40 in995.6 mb - 0.00 in0.0 mm 0.00 in0.0 mm
01:10 PM 52.3°F11.3°C 36.2°F2.3°C 54% 2.3 mph S3.7 kmh S 4.6 mph7.4 kmh 29.40 in995.6 mb - 0.00 in0.0 mm 0.00 in0.0 mm
01:00 PM 52.3°F11.3°C 36.2°F2.3°C 54% 2.3 mph W3.7 kmh W 3.5 mph5.6 kmh 29.40 in995.6 mb - 0.00 in0.0 mm 0.00 in0.0 mm
12:50 PM 52.6°F11.4°C 36.0°F2.2°C 53% 2.3 mph SW3.7 kmh SW 4.6 mph7.4 kmh 29.41 in995.9 mb - 0.00 in0.0 mm 0.00 in0.0 mm
12:40 PM 52.5°F11.4°C 35.4°F1.9°C 52% 2.3 mph SW3.7 kmh SW 4.6 mph7.4 kmh 29.41 in995.9 mb - 0.00 in0.0 mm 0.00 in0.0 mm
12:30 PM 52.5°F11.4°C 36.8°F2.7°C 55% 2.3 mph SSE3.7 kmh SSE 2.3 mph3.7 kmh 29.41 in995.9 mb - 0.00 in0.0 mm 0.00 in0.0 mm
12:20 PM 52.7°F11.5°C 37.0°F2.8°C 55% 2.3 mph W3.7 kmh W 1.2 mph1.9 kmh 29.41 in995.9 mb - 0.00 in0.0 mm 0.00 in0.0 mm
12:10 PM 53.1°F11.7°C 37.8°F3.2°C 56% 2.3 mph SE3.7 kmh SE 4.6 mph7.4 kmh 29.41 in995.9 mb - 0.00 in0.0 mm 0.00 in0.0 mm
12:00 PM 53.7°F12.1°C 37.9°F3.3°C 55% 3.5 mph E5.6 kmh E 3.5 mph5.6 kmh 29.41 in995.9 mb - 0.00 in0.0 mm 0.00 in0.0 mm
11:50 AM 54.7°F12.6°C 38.4°F3.6°C 54% 3.5 mph SW5.6 kmh SW 9.2 mph14.8 kmh 29.40 in995.6 mb - 0.00 in0.0 mm 0.00 in0.0 mm
11:40 AM 56.5°F13.6°C 38.6°F3.7°C 51% 3.5 mph SW5.6 kmh SW 5.8 mph9.3 kmh 29.39 in995.3 mb - 0.00 in0.0 mm 0.00 in0.0 mm
11:30 AM 57.4°F14.1°C 41.4°F5.2°C 55% 3.5 mph NW5.6 kmh NW 3.5 mph5.6 kmh 29.39 in995.3 mb - 0.00 in0.0 mm 0.00 in0.0 mm
11:20 AM 57.8°F14.3°C 42.7°F5.9°C 57% 3.5 mph NW5.6 kmh NW 4.6 mph7.4 kmh 29.40 in995.6 mb - 0.00 in0.0 mm 0.00 in0.0 mm
11:10 AM 58.3°F14.6°C 45.7°F7.6°C 63% 3.5 mph N5.6 kmh N 6.9 mph11.1 kmh 29.39 in995.3 mb - 0.00 in0.0 mm 0.00 in0.0 mm
11:00 AM 57.9°F14.4°C 44.5°F6.9°C 61% 4.6 mph NW7.4 kmh NW 8.1 mph13.0 kmh 29.39 in995.3 mb - 0.00 in0.0 mm 0.00 in0.0 mm
10:50 AM 57.1°F13.9°C 44.2°F6.8°C 62% 4.6 mph NW7.4 kmh NW 5.8 mph9.3 kmh 29.38 in994.9 mb - 0.00 in0.0 mm 0.00 in0.0 mm
10:40 AM 56.4°F13.6°C 45.1°F7.3°C 66% 4.6 mph N7.4 kmh N 4.6 mph7.4 kmh 29.39 in995.3 mb - 0.00 in0.0 mm 0.00 in0.0 mm
10:30 AM 56.0°F13.3°C 45.6°F7.6°C 68% 2.3 mph N3.7 kmh N 9.2 mph14.8 kmh 29.39 in995.3 mb - 0.00 in0.0 mm 0.00 in0.0 mm
10:20 AM 55.2°F12.9°C 45.6°F7.6°C 70% 2.3 mph N3.7 kmh N 4.6 mph7.4 kmh 29.40 in995.6 mb - 0.00 in0.0 mm 0.00 in0.0 mm
10:10 AM 54.7°F12.6°C 46.2°F7.9°C 73% 2.3 mph NW3.7 kmh NW 3.5 mph5.6 kmh 29.41 in995.9 mb - 0.00 in0.0 mm 0.00 in0.0 mm
10:00 AM 54.0°F12.2°C 46.2°F7.9°C 75% 2.3 mph WNW3.7 kmh WNW 4.6 mph7.4 kmh 29.41 in995.9 mb - 0.00 in0.0 mm 0.00 in0.0 mm
09:50 AM 53.2°F11.8°C 46.2°F7.9°C 77% 2.3 mph N3.7 kmh N 2.3 mph3.7 kmh 29.41 in995.9 mb - 0.00 in0.0 mm 0.00 in0.0 mm
09:40 AM 53.4°F11.9°C 46.0°F7.8°C 76% 2.3 mph NW3.7 kmh NW 3.5 mph5.6 kmh 29.42 in996.3 mb - 0.00 in0.0 mm 0.00 in0.0 mm
09:30 AM 53.1°F11.7°C 46.4°F8.0°C 78% 1.2 mph NNW1.9 kmh NNW 2.3 mph3.7 kmh 29.42 in996.3 mb - 0.00 in0.0 mm 0.00 in0.0 mm
09:20 AM 52.5°F11.4°C 46.2°F7.9°C 79% 2.3 mph NW3.7 kmh NW 2.3 mph3.7 kmh 29.42 in996.3 mb - 0.00 in0.0 mm 0.00 in0.0 mm
09:10 AM 51.6°F10.9°C 46.0°F7.8°C 81% 1.2 mph W1.9 kmh W 2.3 mph3.7 kmh 29.43 in996.6 mb - 0.00 in0.0 mm 0.00 in0.0 mm
09:00 AM 50.7°F10.4°C 45.0°F7.2°C 81% 1.2 mph NW1.9 kmh NW 2.3 mph3.7 kmh 29.43 in996.6 mb - 0.00 in0.0 mm 0.00 in0.0 mm
08:50 AM 50.6°F10.3°C 45.0°F7.2°C 81% 2.3 mph NW3.7 kmh NW 2.3 mph3.7 kmh 29.43 in996.6 mb - 0.00 in0.0 mm 0.00 in0.0 mm
08:40 AM 50.6°F10.3°C 45.6°F7.6°C 83% Calm Calm 4.6 mph7.4 kmh 29.43 in996.6 mb - 0.00 in0.0 mm 0.00 in0.0 mm
08:30 AM 50.1°F10.1°C 45.5°F7.5°C 84% 2.3 mph W3.7 kmh W 2.3 mph3.7 kmh 29.43 in996.6 mb - 0.00 in0.0 mm 0.00 in0.0 mm
08:20 AM 49.3°F9.6°C 45.0°F7.2°C 85% 1.2 mph W1.9 kmh W 4.6 mph7.4 kmh 29.43 in996.6 mb - 0.00 in0.0 mm 0.00 in0.0 mm
08:10 AM 48.8°F9.3°C 45.1°F7.3°C 87% Calm Calm 2.3 mph3.7 kmh 29.42 in996.3 mb - 0.00 in0.0 mm 0.00 in0.0 mm
08:00 AM 48.4°F9.1°C 45.0°F7.2°C 88% Calm Calm -- 29.42 in996.3 mb - 0.00 in0.0 mm 0.00 in0.0 mm
07:50 AM 47.8°F8.8°C 44.7°F7.1°C 89% Calm Calm 2.3 mph3.7 kmh 29.41 in995.9 mb - 0.00 in0.0 mm 0.00 in0.0 mm
07:40 AM 47.3°F8.5°C 44.2°F6.8°C 89% Calm Calm 2.3 mph3.7 kmh 29.41 in995.9 mb - 0.00 in0.0 mm 0.00 in0.0 mm
07:30 AM 47.1°F8.4°C 44.0°F6.7°C 89% Calm Calm -- 29.41 in995.9 mb - 0.00 in0.0 mm 0.00 in0.0 mm
07:20 AM 46.9°F8.3°C 44.2°F6.8°C 90% Calm Calm -- 29.41 in995.9 mb - 0.00 in0.0 mm 0.00 in0.0 mm
07:10 AM 46.9°F8.3°C 44.2°F6.8°C 90% Calm Calm -- 29.41 in995.9 mb - 0.00 in0.0 mm 0.00 in0.0 mm
07:00 AM 46.8°F8.2°C 44.3°F6.8°C 91% Calm Calm -- 29.41 in995.9 mb - 0.00 in0.0 mm 0.00 in0.0 mm
06:50 AM 46.7°F8.2°C 44.5°F6.9°C 92% Calm Calm 1.2 mph1.9 kmh 29.41 in995.9 mb - 0.00 in0.0 mm 0.00 in0.0 mm
06:40 AM 46.4°F8.0°C 44.2°F6.8°C 92% 2.3 mph ESE3.7 kmh ESE -- 29.42 in996.3 mb - 0.00 in0.0 mm 0.00 in0.0 mm
06:30 AM 45.9°F7.7°C 44.2°F6.8°C 94% Calm Calm 2.3 mph3.7 kmh 29.42 in996.3 mb - 0.00 in0.0 mm 0.00 in0.0 mm
06:20 AM 45.0°F7.2°C 43.4°F6.3°C 94% Calm Calm -- 29.42 in996.3 mb - 0.00 in0.0 mm 0.00 in0.0 mm
06:10 AM 44.6°F7.0°C 42.4°F5.8°C 92% Calm Calm -- 29.43 in996.6 mb - 0.00 in0.0 mm 0.00 in0.0 mm
06:00 AM 44.4°F6.9°C 42.2°F5.7°C 92% Calm Calm -- 29.43 in996.6 mb - 0.00 in0.0 mm 0.00 in0.0 mm
05:50 AM 44.4°F6.9°C 42.2°F5.7°C 92% Calm Calm -- 29.43 in996.6 mb - 0.00 in0.0 mm 0.00 in0.0 mm
05:40 AM 44.4°F6.9°C 42.0°F5.6°C 91% Calm Calm 2.3 mph3.7 kmh 29.44 in997.0 mb - 0.00 in0.0 mm 0.00 in0.0 mm
05:30 AM 44.4°F6.9°C 42.0°F5.6°C 91% Calm Calm -- 29.44 in997.0 mb - 0.00 in0.0 mm 0.00 in0.0 mm
05:20 AM 44.4°F6.9°C 41.7°F5.4°C 90% Calm Calm -- 29.44 in997.0 mb - 0.00 in0.0 mm 0.00 in0.0 mm
05:10 AM 44.8°F7.1°C 42.0°F5.6°C 90% Calm Calm -- 29.44 in997.0 mb - 0.00 in0.0 mm 0.00 in0.0 mm
05:00 AM 45.0°F7.2°C 42.5°F5.8°C 91% Calm Calm -- 29.44 in997.0 mb - 0.00 in0.0 mm 0.00 in0.0 mm
04:50 AM 45.1°F7.3°C 42.4°F5.8°C 90% Calm Calm 1.2 mph1.9 kmh 29.45 in997.3 mb - 0.00 in0.0 mm 0.00 in0.0 mm
04:40 AM 45.3°F7.4°C 42.6°F5.9°C 90% Calm Calm -- 29.46 in997.6 mb - 0.00 in0.0 mm 0.00 in0.0 mm
04:30 AM 45.5°F7.5°C 42.7°F5.9°C 90% Calm Calm -- 29.46 in997.6 mb - 0.00 in0.0 mm 0.00 in0.0 mm
04:20 AM 45.6°F7.6°C 42.8°F6.0°C 90% Calm Calm -- 29.47 in998.0 mb - 0.00 in0.0 mm 0.00 in0.0 mm
04:10 AM 45.7°F7.6°C 42.3°F5.7°C 88% Calm Calm -- 29.47 in998.0 mb - 0.00 in0.0 mm 0.00 in0.0 mm
04:00 AM 46.0°F7.8°C 42.7°F5.9°C 88% Calm Calm -- 29.47 in998.0 mb - 0.00 in0.0 mm 0.00 in0.0 mm
03:50 AM 46.4°F8.0°C 42.7°F5.9°C 87% Calm Calm -- 29.47 in998.0 mb - 0.00 in0.0 mm 0.00 in0.0 mm
03:40 AM 46.8°F8.2°C 43.4°F6.3°C 88% Calm Calm -- 29.47 in998.0 mb - 0.00 in0.0 mm 0.00 in0.0 mm
03:30 AM 46.9°F8.3°C 43.6°F6.4°C 88% Calm Calm -- 29.47 in998.0 mb - 0.00 in0.0 mm 0.00 in0.0 mm
03:20 AM 47.1°F8.4°C 43.4°F6.3°C 87% Calm Calm -- 29.48 in998.3 mb - 0.00 in0.0 mm 0.00 in0.0 mm
03:10 AM 47.1°F8.4°C 43.4°F6.3°C 87% Calm Calm -- 29.49 in998.6 mb - 0.00 in0.0 mm 0.00 in0.0 mm
03:00 AM 47.5°F8.6°C 43.5°F6.4°C 86% Calm Calm 1.2 mph1.9 kmh 29.49 in998.6 mb - 0.00 in0.0 mm 0.00 in0.0 mm
02:50 AM 47.7°F8.7°C 44.0°F6.7°C 87% Calm Calm -- 29.50 in999.0 mb - 0.00 in0.0 mm 0.00 in0.0 mm
02:40 AM 47.7°F8.7°C 44.0°F6.7°C 87% Calm Calm -- 29.50 in999.0 mb - 0.00 in0.0 mm 0.00 in0.0 mm
02:30 AM 47.8°F8.8°C 43.9°F6.6°C 86% Calm Calm -- 29.50 in999.0 mb - 0.00 in0.0 mm 0.00 in0.0 mm
02:20 AM 47.8°F8.8°C 43.9°F6.6°C 86% Calm Calm -- 29.51 in999.3 mb - 0.00 in0.0 mm 0.00 in0.0 mm
02:10 AM 47.9°F8.8°C 43.9°F6.6°C 86% Calm Calm -- 29.53 in1000.0 mb - 0.00 in0.0 mm 0.00 in0.0 mm
02:00 AM 48.0°F8.9°C 44.0°F6.7°C 86% Calm Calm -- 29.53 in1000.0 mb - 0.00 in0.0 mm 0.00 in0.0 mm
01:50 AM 48.0°F8.9°C 43.7°F6.5°C 85% Calm Calm -- 29.53 in1000.0 mb - 0.00 in0.0 mm 0.00 in0.0 mm
01:40 AM 48.0°F8.9°C 43.7°F6.5°C 85% 1.2 mph NW1.9 kmh NW 1.2 mph1.9 kmh 29.54 in1000.3 mb - 0.00 in0.0 mm 0.00 in0.0 mm
01:30 AM 48.0°F8.9°C 43.7°F6.5°C 85% Calm Calm 1.2 mph1.9 kmh 29.54 in1000.3 mb - 0.00 in0.0 mm 0.00 in0.0 mm
01:20 AM 48.2°F9.0°C 43.9°F6.6°C 85% Calm Calm -- 29.55 in1000.7 mb - 0.00 in0.0 mm 0.00 in0.0 mm
01:10 AM 48.4°F9.1°C 43.8°F6.6°C 84% Calm Calm -- 29.55 in1000.7 mb - 0.00 in0.0 mm 0.00 in0.0 mm
01:00 AM 48.4°F9.1°C 43.8°F6.6°C 84% Calm Calm -- 29.55 in1000.7 mb - 0.00 in0.0 mm 0.00 in0.0 mm
12:50 AM 48.4°F9.1°C 43.8°F6.6°C 84% Calm Calm -- 29.56 in1001.0 mb - 0.00 in0.0 mm 0.00 in0.0 mm
12:40 AM 48.5°F9.2°C 43.9°F6.6°C 84% Calm Calm -- 29.56 in1001.0 mb - 0.00 in0.0 mm 0.00 in0.0 mm
12:30 AM 48.6°F9.2°C 43.7°F6.5°C 83% Calm Calm -- 29.56 in1001.0 mb - 0.00 in0.0 mm 0.00 in0.0 mm
12:20 AM 48.9°F9.4°C 44.0°F6.7°C 83% Calm Calm 2.3 mph3.7 kmh 29.57 in1001.4 mb - 0.00 in0.0 mm 0.00 in0.0 mm
12:10 AM 48.9°F9.4°C 44.0°F6.7°C 83% Calm Calm -- 29.57 in1001.4 mb - 0.00 in0.0 mm 0.00 in0.0 mm
12:00 AM 48.9°F9.4°C 44.0°F6.7°C 83% Calm Calm -- 29.57 in1001.4 mb - 0.00 in0.0 mm 0.00 in0.0 mm